Country
Station

 

Weather  for  Trenton, Mercer County Airport  -  United States    United States

  
-11 °C (12 °F)
    
 
 

Current METAR for Trenton, Mercer County Airport is :

KTTN 210753Z AUTO 30013G24KT 10SM FEW042 M11/M19 A2992 RMK AO2 PK WND 29026/0743 SLP130 T11111194

 

This is a report for Trenton, Mercer County Airport - United States.
 
The report was made 39 minutes ago, at 07:53 UTC .
The wind was blowing at a speed of 6.7 meters per second (15.0 miles per hour) with gusts up to 12.3 meters per second (27.6 miles per hour) from west/northwest (300°).
 
The temperature was -11 °C (12 °F), with a dew-point at -19 °C (-2 °F).
The temperature felt like -19 °C (-4 °F).
 
The atmospheric pressure was 1013 hPa (29.92 inHg).
The relative humidity was 51.5%.
 
There were a few clouds at a height of 1280 meters (4200 feet).
 
The overall visibility was 16.1 kilometers (10.0 miles).
 

 
 
 
 

Country :   A   B   C   D   E   F   G   H   I   J   K   L   M   N   O   P   Q   R   S   T   U   V   W   Y   Z

 

Site Info  |  Disclaimer  |  Credits  |  Privacy
Contact us  |  Add to favorites
© 2013-2019 METARs - All rights reserved